createdAt,value
2022-11-30T00:00:24.743Z,21.45
2022-11-30T00:05:27.292Z,21.58
2022-11-30T00:10:29.454Z,21.60
2022-11-30T00:15:33.047Z,20.00
2022-11-30T00:20:35.051Z,20.30
2022-11-30T00:25:37.398Z,20.20
2022-11-30T00:30:39.659Z,19.33
2022-11-30T00:35:41.869Z,18.90
2022-11-30T00:40:43.916Z,18.83
2022-11-30T00:45:46.282Z,19.98
2022-11-30T00:50:49.770Z,18.40
2022-11-30T00:55:51.985Z,18.73
2022-11-30T01:00:54.183Z,17.85
2022-11-30T01:06:05.340Z,18.08
2022-11-30T01:11:12.520Z,18.65
2022-11-30T01:16:18.195Z,17.75
2022-11-30T01:21:23.483Z,18.25
2022-11-30T01:26:25.543Z,17.85
2022-11-30T01:31:27.549Z,18.35
2022-11-30T01:36:29.637Z,19.58
2022-11-30T01:41:36.122Z,20.67
2022-11-30T01:46:41.880Z,20.27
2022-11-30T01:51:48.826Z,20.98
2022-11-30T01:56:57.754Z,20.65
2022-11-30T02:01:59.885Z,22.40
2022-11-30T02:07:04.242Z,20.50
2022-11-30T02:12:11.663Z,21.10
2022-11-30T02:17:50.830Z,21.08
2022-11-30T02:23:17.592Z,22.02
2022-11-30T02:28:34.835Z,20.67
2022-11-30T02:33:39.048Z,20.92
2022-11-30T02:38:41.966Z,20.45
2022-11-30T02:43:44.649Z,21.08
2022-11-30T02:48:56.116Z,20.02
2022-11-30T02:53:58.529Z,20.08
2022-11-30T02:59:00.571Z,20.33
2022-11-30T03:04:02.704Z,20.02
2022-11-30T03:09:04.902Z,19.92
2022-11-30T03:14:06.861Z,20.83
2022-11-30T03:19:08.875Z,20.10
2022-11-30T03:24:10.987Z,21.15
2022-11-30T03:29:13.070Z,22.63
2022-11-30T03:34:15.171Z,22.65
2022-11-30T03:39:17.260Z,21.85
2022-11-30T03:44:19.606Z,21.23
2022-11-30T03:49:21.666Z,20.38
2022-11-30T03:54:23.704Z,21.00
2022-11-30T03:59:25.687Z,20.05
2022-11-30T04:04:27.670Z,20.02
2022-11-30T04:09:29.723Z,21.40
2022-11-30T04:14:31.829Z,19.35
2022-11-30T04:19:33.835Z,17.70
2022-11-30T04:24:35.856Z,18.40
2022-11-30T04:29:38.018Z,18.38
2022-11-30T04:34:40.128Z,18.27
2022-11-30T04:39:42.253Z,17.33
2022-11-30T04:44:44.602Z,17.90
2022-11-30T04:49:47.109Z,19.05
2022-11-30T04:54:49.697Z,17.20
2022-11-30T04:59:52.208Z,18.15
2022-11-30T05:04:54.528Z,18.02
2022-11-30T05:09:56.729Z,17.70
2022-11-30T05:14:59.096Z,17.77
2022-11-30T05:20:01.535Z,17.10
2022-11-30T05:25:04.265Z,17.40
2022-11-30T05:30:07.299Z,17.70
2022-11-30T05:35:09.831Z,18.48
2022-11-30T05:40:12.330Z,17.45
2022-11-30T05:45:14.376Z,17.58
2022-11-30T05:50:16.633Z,17.35
2022-11-30T05:55:18.767Z,18.00
2022-11-30T06:00:21.833Z,17.48
2022-11-30T06:05:24.595Z,17.25
2022-11-30T06:10:27.248Z,17.52
2022-11-30T06:15:29.239Z,17.77
2022-11-30T06:20:31.359Z,17.02
2022-11-30T06:25:33.577Z,17.73
2022-11-30T06:30:35.820Z,17.10
2022-11-30T06:35:44.115Z,15.55
2022-11-30T06:40:46.174Z,18.27
2022-11-30T06:45:48.334Z,17.05
2022-11-30T06:50:50.439Z,16.83
2022-11-30T06:55:52.996Z,17.63
2022-11-30T07:00:55.274Z,16.45
2022-11-30T07:06:13.059Z,17.72
2022-11-30T07:16:17.491Z,15.35
2022-11-30T07:21:19.545Z,16.38
2022-11-30T07:26:22.075Z,17.02
2022-11-30T07:31:27.600Z,17.80
2022-11-30T07:36:31.545Z,16.33
2022-11-30T07:41:33.594Z,16.85
2022-11-30T07:46:38.426Z,16.90
2022-11-30T07:51:40.527Z,16.98
2022-11-30T07:56:42.510Z,15.35
2022-11-30T08:01:44.617Z,15.32
2022-11-30T08:06:46.846Z,16.23
2022-11-30T08:11:49.456Z,16.27
2022-11-30T08:16:51.740Z,16.23
2022-11-30T08:21:53.749Z,15.07
2022-11-30T08:26:56.877Z,15.77
2022-11-30T08:31:58.929Z,14.55
2022-11-30T08:37:00.941Z,16.52
2022-11-30T08:42:03.468Z,16.38
2022-11-30T08:47:07.255Z,18.27
2022-11-30T08:52:18.109Z,18.67
2022-11-30T08:57:21.557Z,19.13
2022-11-30T09:02:23.556Z,16.60
2022-11-30T09:07:25.895Z,18.65
2022-11-30T09:12:28.204Z,21.27
2022-11-30T09:17:31.641Z,22.02
2022-11-30T09:22:33.620Z,20.98
2022-11-30T09:27:35.928Z,18.05
2022-11-30T09:32:38.051Z,21.88
2022-11-30T09:37:40.274Z,22.38
2022-11-30T09:42:55.330Z,22.58
2022-11-30T09:48:15.920Z,21.58
2022-11-30T09:53:30.222Z,22.30
2022-11-30T09:59:13.759Z,22.83
2022-11-30T10:04:22.665Z,21.73
2022-11-30T10:10:15.932Z,20.23
2022-11-30T10:15:34.929Z,18.83
2022-11-30T10:20:56.139Z,18.90
2022-11-30T10:26:05.673Z,18.35
2022-11-30T10:31:12.929Z,18.40
2022-11-30T10:36:27.712Z,18.55
2022-11-30T10:41:34.929Z,16.65
2022-11-30T10:46:38.852Z,18.25
2022-11-30T10:51:44.141Z,18.45
2022-11-30T10:56:46.911Z,18.15
2022-11-30T11:01:49.271Z,17.63
2022-11-30T11:06:57.816Z,17.83
2022-11-30T11:12:18.696Z,18.60
2022-11-30T11:17:26.348Z,16.97
2022-11-30T11:22:31.227Z,16.63
2022-11-30T11:27:33.911Z,16.10
2022-11-30T11:32:36.099Z,17.45
2022-11-30T11:37:41.466Z,16.52
2022-11-30T11:42:51.323Z,16.00
2022-11-30T11:48:37.643Z,16.60
2022-11-30T11:53:51.529Z,15.65
2022-11-30T11:59:00.629Z,15.95
2022-11-30T12:04:12.578Z,17.55
2022-11-30T12:09:19.801Z,18.00
2022-11-30T12:14:21.997Z,17.30
2022-11-30T12:20:03.788Z,17.38
2022-11-30T12:25:29.194Z,18.45
2022-11-30T12:30:45.381Z,17.85
2022-11-30T12:36:07.558Z,16.70
2022-11-30T12:41:26.692Z,17.02
2022-11-30T12:47:04.638Z,18.10
2022-11-30T12:52:40.530Z,18.48
2022-11-30T12:57:45.272Z,16.83
2022-11-30T13:03:06.008Z,17.15
2022-11-30T13:08:51.160Z,15.77
2022-11-30T13:13:56.814Z,15.55
2022-11-30T13:19:15.517Z,13.77
2022-11-30T13:24:28.845Z,13.30
2022-11-30T13:29:49.308Z,13.85
2022-11-30T13:34:51.477Z,13.35
2022-11-30T13:39:56.091Z,14.35
2022-11-30T13:45:17.368Z,13.65
2022-11-30T13:50:22.448Z,13.45
2022-11-30T13:55:51.818Z,15.13
2022-11-30T14:01:02.849Z,14.02
2022-11-30T14:11:41.379Z,15.20
2022-11-30T14:16:43.504Z,15.15
2022-11-30T14:21:46.471Z,15.52
2022-11-30T14:26:51.034Z,15.95
2022-11-30T14:32:15.848Z,15.65
2022-11-30T14:37:27.775Z,15.68
2022-11-30T14:42:31.813Z,15.13
2022-11-30T14:47:35.476Z,15.63
2022-11-30T14:52:43.664Z,17.25
2022-11-30T14:58:14.564Z,16.83
2022-11-30T15:03:28.984Z,15.85
2022-11-30T15:08:42.235Z,18.40
2022-11-30T15:13:47.924Z,18.17
2022-11-30T15:18:50.880Z,17.10
2022-11-30T15:23:55.770Z,18.67
2022-11-30T15:29:02.309Z,19.58
2022-11-30T15:34:07.120Z,20.00
2022-11-30T15:39:19.015Z,22.48
2022-11-30T15:44:38.824Z,22.90
2022-11-30T15:49:51.701Z,19.88
2022-11-30T15:54:56.418Z,21.00
2022-11-30T16:00:29.221Z,20.60
2022-11-30T16:05:31.277Z,18.33
2022-11-30T16:10:39.123Z,19.13
2022-11-30T16:15:48.660Z,17.85
2022-11-30T16:20:53.856Z,19.50
2022-11-30T16:25:56.194Z,19.23
2022-11-30T16:31:00.501Z,19.88
2022-11-30T16:36:07.563Z,19.45
2022-11-30T16:41:21.400Z,20.23
2022-11-30T16:46:28.215Z,20.98
2022-11-30T16:51:34.461Z,23.42
2022-11-30T16:56:36.435Z,21.67
2022-11-30T17:01:43.059Z,19.80
2022-11-30T17:06:49.960Z,18.80
2022-11-30T17:11:53.068Z,23.83
2022-11-30T17:16:55.462Z,22.50
2022-11-30T17:21:57.636Z,21.08
2022-11-30T17:26:59.833Z,20.73
2022-11-30T17:32:01.800Z,22.08
2022-11-30T17:37:03.989Z,24.45
2022-11-30T17:42:06.118Z,22.92
2022-11-30T17:47:08.117Z,21.48
2022-11-30T17:52:10.107Z,19.85
2022-11-30T17:57:12.160Z,19.95
2022-11-30T18:02:14.253Z,20.00
2022-11-30T18:07:16.821Z,21.23
2022-11-30T18:12:18.985Z,20.55
2022-11-30T18:17:21.072Z,20.15
2022-11-30T18:22:23.089Z,19.17
2022-11-30T18:27:26.453Z,17.85
2022-11-30T18:32:28.537Z,20.85
2022-11-30T18:37:32.750Z,18.55
2022-11-30T18:42:34.767Z,20.13
2022-11-30T18:47:36.774Z,20.60
2022-11-30T18:52:38.890Z,20.02
2022-11-30T18:57:40.853Z,19.42
2022-11-30T19:02:47.198Z,18.98
2022-11-30T19:07:49.284Z,20.88
2022-11-30T19:12:51.303Z,20.48
2022-11-30T19:17:55.193Z,19.33
2022-11-30T19:22:57.405Z,18.60
2022-11-30T19:27:59.417Z,19.95
2022-11-30T19:33:01.828Z,19.98
2022-11-30T19:38:03.905Z,19.65
2022-11-30T19:43:06.014Z,19.80
2022-11-30T19:48:08.081Z,19.17
2022-11-30T19:53:10.135Z,22.20
2022-11-30T19:58:12.220Z,19.75
2022-11-30T20:03:14.197Z,21.23
2022-11-30T20:08:16.702Z,20.48
2022-11-30T20:13:18.743Z,20.85
2022-11-30T20:18:20.802Z,22.65
2022-11-30T20:23:22.804Z,20.35
2022-11-30T20:28:24.753Z,19.63
2022-11-30T20:33:27.616Z,21.05
2022-11-30T20:38:30.214Z,20.77
2022-11-30T20:43:32.246Z,22.35
2022-11-30T20:48:34.225Z,20.17
2022-11-30T20:53:36.292Z,21.33
2022-11-30T20:58:38.315Z,20.55
2022-11-30T21:03:40.929Z,20.83
2022-11-30T21:08:43.655Z,21.75
2022-11-30T21:13:48.242Z,20.10
2022-11-30T21:18:51.210Z,22.33
2022-11-30T21:23:53.517Z,21.75
2022-11-30T21:29:00.646Z,19.48
2022-11-30T21:34:03.286Z,21.67
2022-11-30T21:39:09.065Z,22.38
2022-11-30T21:44:12.778Z,21.95
2022-11-30T21:49:15.585Z,21.95
2022-11-30T21:54:17.602Z,22.77
2022-11-30T21:59:19.638Z,21.98
2022-11-30T22:04:21.688Z,23.00
2022-11-30T22:09:23.859Z,23.10
2022-11-30T22:14:25.943Z,22.75
2022-11-30T22:19:27.985Z,22.05
2022-11-30T22:24:30.016Z,22.35
2022-11-30T22:29:32.092Z,22.33
2022-11-30T22:34:34.154Z,21.25
2022-11-30T22:39:36.155Z,21.52
2022-11-30T22:44:38.167Z,20.88
2022-11-30T22:49:40.521Z,21.35
2022-11-30T22:54:42.516Z,20.48
2022-11-30T22:59:44.650Z,20.73
2022-11-30T23:04:46.967Z,21.63
2022-11-30T23:09:49.191Z,21.27
2022-11-30T23:14:51.370Z,21.65
2022-11-30T23:19:53.379Z,20.35
2022-11-30T23:24:55.864Z,20.52
2022-11-30T23:29:58.012Z,20.08
2022-11-30T23:35:00.129Z,20.33
2022-11-30T23:40:02.382Z,21.15
2022-11-30T23:45:04.714Z,21.40
2022-11-30T23:50:07.523Z,20.50
2022-11-30T23:55:09.890Z,18.83
